KDWH/DWH METAR and TAF weather

Enter ICAO airport designator
Station Type Date Time Source
KDWH METAR 2018/01/16 08:53 UTC NOAA

KDWH 160853Z 36014G26KT 6SM -RA BR BKN008 OVC027 04/03 A3045 RMK AO2 PK WND 35026/0846 CIG 006V012 SLP308 P0004 60014 T00440033 51043 $


Station Type Date Time Source
KDWH Decoded METAR 2018/01/16 08:53 UTC NOAA

HOUSTON HOOKS MEMORIAL, TX, United States (KDWH) 30-04N 95-33W 46M
Jan 16, 2018 - 03:53 AM EST / 2018.01.16 0853 UTC
Wind: from the N (360 degrees) at 16 MPH (14 KT) gusting to 30 MPH (26 KT):0
Visibility: 6 mile(s):0
Sky conditions: overcast
Weather: light rain; mist
Precipitation last hour: 0.04 inches
Temperature: 39.9 F (4.4 C)
Dew Point: 37.9 F (3.3 C)
Relative Humidity: 92%
Pressure (altimeter): 30.45 in. Hg (1031 hPa)
Pressure tendency: 0.13 inches (4.3 hPa) higher than three hours ago
ob: KDWH 160853Z 36014G26KT 6SM -RA BR BKN008 OVC027 04/03 A3045 RMK AO2 PK WND 35026/0846 CIG 006V012 SLP308 P0004 60014 T00440033 51043
cycle: 9

Station Type Date Time Source
KDWH TAF 2017/02/07 15:09 UTC NOAA

TAF
AMD KDWH 071507Z 0715/0812 23010KT P6SM BKN015
TEMPO 0715/0719 SCT015
FM071900 25010KT P6SM SCT025
FM080100 22005KT P6SM SCT250
TEMPO 0807/0809 3SM BR BKN013
FM080900 VRB03KT 2SM BR OVC008


Example: see airport list